Lord Nelson — GHJV — position and weather

sailwx.info

Track history (hours):
 
Tides and Currents Weather Stations Pressure Air Temp Water Temp Dewpoint Dewpoint Depression Visibility Wind Speed Wind Dir Waves Ship Positions

Lord Nelson (United Kingdom)

Ship's website: http://www.jst.org.uk/

Last reported at 2017-Apr-26 15:30 UTC. Time now 2017-Apr-26 15:41 UTC.
Position N 50°06' W 004°46'.

Length 54.7 m; beam 9 m; draft 4.1 m.

Type: Sailing vessel. MMSI: 232003690.

Date/timePositionNaut miles runAvg speedWind from/ knotsBaromVisibWave heightAir tempDewpointWater temp
2017-Apr-26 15:30N 50°06' W 004°46'4 7.8
2017-Apr-26 15:00N 50°06' W 004°40'4 8.0
2017-Apr-26 14:30N 50°06' W 004°34'9 8.8
2017-Apr-26 13:30N 50°07' W 004°20'5 9.2
2017-Apr-26 13:00N 50°07' W 004°13'5 9.5
2017-Apr-26 12:30N 50°07' W 004°05'5 9.9
2017-Apr-26 12:00N 50°07' W 003°58'510.4
2017-Apr-26 11:30N 50°07' W 003°50'510.3
2017-Apr-26 11:00N 50°07' W 003°42'5 9.8
2017-Apr-26 10:30N 50°08' W 003°34'5 9.1
2017-Apr-26 10:01N 50°09' W 003°27'4 8.8
2017-Apr-26 09:30N 50°09' W 003°20'4 8.4
2017-Apr-26 09:00N 50°10' W 003°14'4 8.0
2017-Apr-26 08:30N 50°12' W 003°08'4 7.6
2017-Apr-26 08:00N 50°13' W 003°02'4 7.2
2017-Apr-26 07:30N 50°13' W 002°56'4 6.9
2017-Apr-26 07:00N 50°13' W 002°51'4 6.9
2017-Apr-26 06:22N 50°14' W 002°44'3 7.0
2017-Apr-26 06:00N 50°14' W 002°40'4 7.2
2017-Apr-26 05:30N 50°15' W 002°35'4 7.6
2017-Apr-26 05:00N 50°16' W 002°29'4310.8
2017-Apr-26 01:02N 50°23' W 001°23'312.5
2017-Apr-26 00:48N 50°23' W 001°19'2411.3
2017-Apr-25 22:39N 50°28' W 000°41'2 8.7
2017-Apr-25 22:28N 50°29' W 000°38'4 8.0
2017-Apr-25 21:56N 50°29' W 000°32'3 7.3
2017-Apr-25 21:29N 50°29' W 000°27'4 7.1
2017-Apr-25 20:58N 50°30' W 000°21'3 6.9
2017-Apr-25 20:30N 50°30' W 000°16'3 6.4
2017-Apr-25 20:00N 50°31' W 000°11'3 6.6
2017-Apr-25 19:31N 50°31' W 000°06'3 6.7
2017-Apr-25 19:00N 50°32' W 000°01'3 6.7
2017-Apr-25 18:30N 50°33' E 000°04'4 7.4
2017-Apr-25 18:00N 50°34' E 000°10'5399.2
2017-Apr-25 18:00N 50°30' E 000°06'817.1 060 / 31013.410.8 9.6-3.010.6
2017-Apr-25 17:30N 50°36' E 000°16'4 8.9
2017-Apr-25 17:00N 50°37' E 000°22'5 9.3
2017-Apr-25 16:30N 50°38' E 000°29'5 9.1
2017-Apr-25 16:00N 50°40' E 000°36'5 9.3
2017-Apr-25 15:30N 50°43' E 000°42'5 9.1
2017-Apr-25 15:00N 50°45' E 000°48'4 8.9
2017-Apr-25 14:30N 50°48' E 000°54'9 8.3
2017-Apr-25 13:29N 50°53' E 001°04'4 7.7
2017-Apr-25 13:00N 50°55' E 001°09'4 7.3
2017-Apr-25 12:30N 50°57' E 001°14'3 6.6
2017-Apr-25 12:00N 50°59' E 001°18'3 5.9
2017-Apr-25 11:30N 51°01' E 001°21'3 5.6
2017-Apr-25 11:00N 51°03' E 001°25'3 5.8
2017-Apr-25 10:30N 51°05' E 001°28'3 6.7
2017-Apr-25 10:00N 51°07' E 001°32'4 7.2
2017-Apr-25 09:30N 51°10' E 001°36'4 7.9
2017-Apr-25 09:00N 51°13' E 001°40'5 9.4
2017-Apr-25 08:30N 51°18' E 001°41'510.2
2017-Apr-25 08:00N 51°22' E 001°44'510.6
2017-Apr-25 07:30N 51°28' E 001°45'510.6
2017-Apr-25 07:01N 51°33' E 001°46'510.4
2017-Apr-25 06:30N 51°38' E 001°46'510.2
2017-Apr-25 06:00N 51°43' E 001°44'510.0
2017-Apr-25 05:30N 51°48' E 001°42'4 8.7
2017-Apr-25 05:00N 51°52' E 001°42'4 8.4
2017-Apr-25 04:31N 51°56' E 001°44'4 8.1
2017-Apr-25 04:00N 52°00' E 001°45'4 7.2
2017-Apr-25 03:30N 52°04' E 001°47'3 7.0
2017-Apr-25 03:01N 52°07' E 001°47'3 6.5
2017-Apr-25 02:30N 52°10' E 001°50'3 6.8
2017-Apr-25 02:00N 52°13' E 001°52'22 6.7
2017-Apr-24 22:45N 52°35' E 001°60'2 7.5
2017-Apr-24 22:30N 52°36' E 002°01'4 8.2
2017-Apr-24 22:00N 52°40' E 002°03'5 9.1
2017-Apr-24 21:30N 52°45' E 002°03'4 8.3
2017-Apr-24 21:00N 52°46' E 001°56'5 9.2
2017-Apr-24 20:30N 52°47' E 001°49'5 9.6
2017-Apr-24 20:00N 52°50' E 001°42'510.0
2017-Apr-24 19:30N 52°53' E 001°36'510.2
2017-Apr-24 19:01N 52°57' E 001°30'5 9.5
2017-Apr-24 18:30N 53°01' E 001°26'5 9.2
2017-Apr-24 18:01N 53°05' E 001°23'5 9.1
2017-Apr-24 17:30N 53°09' E 001°19'5 9.6
2017-Apr-24 17:00N 53°13' E 001°14'57 8.9
2017-Apr-24 10:34N 54°05' E 000°34'1 7.9
2017-Apr-24 10:28N 54°05' E 000°34'4 7.8
2017-Apr-24 10:00N 54°08' E 000°30'4 7.9
2017-Apr-24 09:28N 54°12' E 000°28'4 7.8
2017-Apr-24 09:00N 54°16' E 000°26'4 7.7
2017-Apr-24 08:30N 54°20' E 000°24'4 7.5
2017-Apr-24 08:01N 54°23' E 000°22'4 7.6
2017-Apr-24 07:30N 54°27' E 000°20'4 7.9
2017-Apr-24 07:00N 54°30' E 000°18'4 8.1
2017-Apr-24 06:30N 54°34' E 000°15'4 8.3
2017-Apr-24 06:00N 54°38' E 000°13'4 8.4
2017-Apr-24 05:30N 54°42' E 000°09'4 8.6
2017-Apr-24 04:59N 54°46' E 000°06'4 8.9
2017-Apr-24 04:29N 54°50' E 000°03'4 8.9
2017-Apr-24 03:59N 54°54' W 000°01'135 8.2
2017-Apr-23 11:36N 56°55' W 001°44'3 8.7
2017-Apr-23 11:17N 56°58' W 001°47'3 8.7
2017-Apr-23 10:53N 57°01' W 001°51'4 8.7
2017-Apr-23 10:28N 57°04' W 001°54'4 8.6
2017-Apr-23 10:00N 57°07' W 001°57'4 8.0
2017-Apr-23 09:29N 57°09' W 002°04'1 1.3
2017-Apr-23 09:00N 57°09' W 002°05'0 0.0
2017-Apr-23 08:30N 57°09' W 002°05'0 0.0
2017-Apr-23 08:00N 57°09' W 002°05'0 0.0
2017-Apr-23 07:30N 57°09' W 002°05'0 0.0
2017-Apr-23 07:00N 57°09' W 002°05'0 0.0
2017-Apr-23 06:30N 57°09' W 002°05'0 0.0
2017-Apr-23 06:00N 57°09' W 002°05'0 0.0
2017-Apr-23 05:30N 57°09' W 002°05'0 0.0
2017-Apr-23 05:00N 57°09' W 002°05'0 0.0
2017-Apr-23 04:30N 57°09' W 002°05'0 0.0
2017-Apr-23 04:00N 57°09' W 002°05'0 0.0
2017-Apr-23 03:27N 57°09' W 002°05'0 0.0
2017-Apr-23 03:00N 57°09' W 002°05'0 0.0
2017-Apr-23 02:30N 57°09' W 002°05'0 0.0
2017-Apr-23 02:00N 57°09' W 002°05'0 0.0
2017-Apr-23 01:30N 57°09' W 002°05'0 0.0
2017-Apr-23 01:00N 57°09' W 002°05'0 0.0
2017-Apr-23 00:30N 57°09' W 002°05'0 0.0
2017-Apr-23 00:00N 57°09' W 002°05'0 0.0
2017-Apr-22 23:30N 57°09' W 002°05'0 0.0
2017-Apr-22 23:00N 57°09' W 002°05'0 0.0
2017-Apr-22 22:30N 57°09' W 002°05'0 0.0
2017-Apr-22 22:00N 57°09' W 002°05'0 0.0
2017-Apr-22 21:30N 57°09' W 002°05'0 0.0
2017-Apr-22 21:00N 57°09' W 002°05'0 0.0
2017-Apr-22 20:30N 57°09' W 002°05'0 0.0
2017-Apr-22 20:00N 57°09' W 002°05'0 0.0
2017-Apr-22 19:30N 57°09' W 002°05'0 0.0
2017-Apr-22 19:00N 57°09' W 002°05'0 0.0
2017-Apr-22 18:30N 57°09' W 002°05'0 0.0
2017-Apr-22 18:00N 57°09' W 002°05'0 0.0
2017-Apr-22 17:30N 57°09' W 002°05'0 0.0
2017-Apr-22 17:00N 57°09' W 002°05'0 0.0
2017-Apr-22 16:30N 57°09' W 002°05'0 0.0
2017-Apr-22 16:00N 57°09' W 002°05'0 0.0
2017-Apr-22 15:30N 57°09' W 002°05'0 0.0
2017-Apr-22 15:00N 57°09' W 002°05'0 0.0
2017-Apr-22 14:30N 57°09' W 002°05'0 0.0
2017-Apr-22 13:29N 57°09' W 002°05'0 0.0
2017-Apr-22 12:59N 57°09' W 002°05'0 0.0
2017-Apr-22 12:29N 57°09' W 002°05'0 0.0
2017-Apr-22 11:59N 57°09' W 002°05'0 0.0
2017-Apr-22 11:29N 57°09' W 002°05'0 0.0
2017-Apr-22 10:59N 57°09' W 002°05'0 0.0
2017-Apr-22 10:29N 57°09' W 002°05'0 0.0
2017-Apr-22 09:59N 57°09' W 002°05'0 0.0
2017-Apr-22 09:29N 57°09' W 002°05'0 0.0
2017-Apr-22 08:59N 57°09' W 002°05'0 0.0
2017-Apr-22 08:29N 57°09' W 002°05'0 0.0
2017-Apr-22 07:59N 57°09' W 002°05'0 0.0
2017-Apr-22 07:29N 57°09' W 002°05'0 0.0
2017-Apr-22 06:59N 57°09' W 002°05'0 0.0
2017-Apr-22 06:26N 57°09' W 002°05'0 0.0
2017-Apr-22 05:59N 57°09' W 002°05'0 0.0
2017-Apr-22 05:29N 57°09' W 002°05'0 0.0
2017-Apr-22 04:59N 57°09' W 002°05'0 0.0
2017-Apr-22 04:29N 57°09' W 002°05'0 0.0
2017-Apr-22 03:59N 57°09' W 002°05'0 0.0
2017-Apr-22 03:29N 57°09' W 002°05'0 0.0
2017-Apr-22 02:59N 57°09' W 002°05'0 0.0
2017-Apr-22 02:29N 57°09' W 002°05'0 0.0
2017-Apr-22 01:59N 57°09' W 002°05'0 0.0
2017-Apr-22 01:29N 57°09' W 002°05'0 0.0
2017-Apr-22 00:59N 57°09' W 002°05'0 0.0
2017-Apr-22 00:29N 57°09' W 002°05'0 0.0
2017-Apr-21 23:59N 57°09' W 002°05'0 0.0
2017-Apr-21 23:29N 57°09' W 002°05'0 0.0
2017-Apr-21 22:59N 57°09' W 002°05'0 0.0
2017-Apr-21 22:29N 57°09' W 002°05'0 0.0
2017-Apr-21 21:59N 57°09' W 002°05'0 0.0
2017-Apr-21 21:29N 57°09' W 002°05'0 0.0
2017-Apr-21 20:59N 57°09' W 002°05'0 0.0
2017-Apr-21 20:29N 57°09' W 002°05'0 0.0
2017-Apr-21 19:59N 57°09' W 002°05'0 0.0
2017-Apr-21 19:29N 57°09' W 002°05'0 0.0
2017-Apr-21 18:59N 57°09' W 002°05'0 0.0
2017-Apr-21 18:29N 57°09' W 002°05'0 0.0
2017-Apr-21 17:59N 57°09' W 002°05'0 0.0
2017-Apr-21 17:29N 57°09' W 002°05'0 0.0
2017-Apr-21 16:59N 57°09' W 002°05'0 0.0
2017-Apr-21 16:29N 57°09' W 002°05'0 0.0
2017-Apr-21 15:59N 57°09' W 002°05'0 0.0
2017-Apr-21 15:29N 57°09' W 002°05'0 0.0
2017-Apr-21 14:59N 57°09' W 002°05'0 0.0
2017-Apr-21 13:23N 57°09' W 002°05'0 0.0
2017-Apr-21 12:59N 57°09' W 002°05'0 0.0
2017-Apr-21 12:29N 57°09' W 002°05'0 0.0
2017-Apr-21 11:59N 57°09' W 002°05'0 0.0
2017-Apr-21 11:29N 57°09' W 002°05'0 0.0
2017-Apr-21 10:59N 57°09' W 002°05'0 0.0
2017-Apr-21 10:29N 57°09' W 002°05'0 0.0
2017-Apr-21 09:59N 57°09' W 002°05'0 0.0
2017-Apr-21 09:29N 57°09' W 002°05'0 0.0
2017-Apr-21 08:59N 57°09' W 002°05'0 0.0
2017-Apr-21 08:29N 57°09' W 002°05'0 0.0
2017-Apr-21 07:50N 57°09' W 002°05'0 0.0
2017-Apr-21 07:29N 57°09' W 002°05'0 0.0
2017-Apr-21 06:59N 57°09' W 002°05'0 0.0
2017-Apr-21 06:29N 57°09' W 002°05'0 0.0
2017-Apr-21 05:59N 57°09' W 002°05'0 0.0
2017-Apr-21 05:29N 57°09' W 002°05'0 0.0
2017-Apr-21 04:56N 57°09' W 002°05'0 0.0
2017-Apr-21 04:29N 57°09' W 002°05'0 0.0
2017-Apr-21 03:59N 57°09' W 002°05'0 0.0
2017-Apr-21 03:29N 57°09' W 002°05'0 0.0
2017-Apr-21 02:59N 57°09' W 002°05'0 0.0
2017-Apr-21 02:29N 57°09' W 002°05'0 0.0
2017-Apr-21 01:59N 57°09' W 002°05'0 0.0
2017-Apr-21 01:26N 57°09' W 002°05'0 0.0
2017-Apr-21 00:59N 57°09' W 002°05'0 0.0
2017-Apr-21 00:29N 57°09' W 002°05'0 0.0
2017-Apr-20 23:56N 57°09' W 002°05'0 0.0
2017-Apr-20 23:29N 57°09' W 002°05'0 0.0
2017-Apr-20 22:59N 57°09' W 002°05'0 0.0
2017-Apr-20 22:29N 57°09' W 002°05'0 0.0
2017-Apr-20 21:59N 57°09' W 002°05'0 0.0
2017-Apr-20 21:29N 57°09' W 002°05'0 0.0
2017-Apr-20 20:59N 57°09' W 002°05'0 0.0
2017-Apr-20 20:29N 57°09' W 002°05'0 0.0
2017-Apr-20 19:59N 57°09' W 002°05'0 0.0
2017-Apr-20 19:29N 57°09' W 002°05'0 0.0
2017-Apr-20 18:59N 57°09' W 002°05'0 0.0
2017-Apr-20 18:29N 57°09' W 002°05'0 0.0
2017-Apr-20 17:59N 57°09' W 002°05'0 0.0
2017-Apr-20 17:29N 57°09' W 002°05'0 0.0
2017-Apr-20 16:59N 57°09' W 002°05'0 0.0
2017-Apr-20 16:29N 57°09' W 002°05'0 0.0
2017-Apr-20 15:59N 57°09' W 002°05'0 0.0
2017-Apr-20 15:29N 57°09' W 002°05'0 0.0
2017-Apr-20 14:59N 57°09' W 002°05'0 0.0
2017-Apr-20 13:59N 57°09' W 002°05'0 0.0
2017-Apr-20 13:29N 57°09' W 002°05'0 0.0
2017-Apr-20 12:59N 57°09' W 002°05'0 0.0
2017-Apr-20 12:29N 57°09' W 002°05'0 0.0
2017-Apr-20 11:59N 57°09' W 002°05'0 0.0
2017-Apr-20 11:30N 57°09' W 002°05'1 2.5
2017-Apr-20 11:00N 57°09' W 002°03'2 3.8
2017-Apr-20 10:30N 57°08' W 002°00'3 6.4
2017-Apr-20 10:00N 57°05' W 002°02'4 7.4
2017-Apr-20 09:30N 57°01' W 002°04'4 0.2
2017-Apr-19 11:22N 56°57' W 002°07'3 7.2
2017-Apr-19 11:00N 56°57' W 002°03'4 7.2
2017-Apr-19 10:30N 56°56' W 001°56'4 7.9
2017-Apr-19 10:00N 56°54' W 001°51'19 4.8
2017-Apr-19 06:00N 56°36' W 001°36'24 3.8 210 / 151032.910.8 7.6 3.9 7.7
2017-Apr-18 23:43N 56°12' W 001°33'1 5.3
2017-Apr-18 23:30N 56°11' W 001°33'3 5.3
2017-Apr-18 22:58N 56°08' W 001°33'14 7.3
2017-Apr-18 21:00N 55°54' W 001°30'4 3.0 170 / 181034.810.8 7.2 2.1
2017-Apr-18 19:40N 55°54' W 001°37'1 3.5
2017-Apr-18 19:22N 55°53' W 001°37'1 3.4
2017-Apr-18 18:57N 55°52' W 001°36'3 3.3
2017-Apr-18 18:10N 55°50' W 001°34'0 3.0
2017-Apr-18 18:00N 55°49' W 001°34'2 3.1
2017-Apr-18 17:30N 55°48' W 001°33'1 3.1
2017-Apr-18 17:00N 55°46' W 001°32'2 2.6
2017-Apr-18 16:25N 55°45' W 001°32'2 3.4
2017-Apr-18 15:53N 55°43' W 001°31'5 3.4
2017-Apr-18 14:30N 55°38' W 001°29'4 4.3
2017-Apr-18 13:30N 55°34' W 001°28'4 7.0
2017-Apr-18 13:00N 55°31' W 001°27'4 7.7
2017-Apr-18 12:30N 55°27' W 001°27'4 7.4
2017-Apr-18 12:00N 55°23' W 001°27'4 7.1
2017-Apr-18 11:31N 55°20' W 001°27'4 7.0
2017-Apr-18 11:00N 55°16' W 001°25'3 6.8
2017-Apr-18 10:30N 55°13' W 001°23'3 6.3
2017-Apr-18 10:00N 55°10' W 001°22'3 5.2
2017-Apr-18 09:30N 55°07' W 001°21'2 3.7
2017-Apr-18 09:00N 55°05' W 001°22'2 3.6
2017-Apr-18 08:30N 55°04' W 001°22'3 5.3
2017-Apr-18 08:00N 55°01' W 001°22'3 5.3
2017-Apr-18 07:30N 54°60' W 001°27'4 4.9
2017-Apr-18 06:44N 54°58' W 001°32'  
Track history (hours):
 
Tides and Currents Weather Stations Pressure Air Temp Water Temp Dewpoint Dewpoint Depression Visibility Wind Speed Wind Dir Waves Ship Positions

Lord Nelson (United Kingdom)

Ship's website: http://www.jst.org.uk/

Last reported at 2017-Apr-26 15:30 UTC. Time now 2017-Apr-26 15:41 UTC.
Position N 50°06' W 004°46'.

Length 54.7 m; beam 9 m; draft 4.1 m.

Type: Sailing vessel. MMSI: 232003690.

Date/timePositionNaut miles runAvg speedWind from/ knotsBaromVisibWave heightAir tempDewpointWater temp
2017-Apr-26 15:30N 50°06' W 004°46'4 7.8
2017-Apr-26 15:00N 50°06' W 004°40'4 8.0
2017-Apr-26 14:30N 50°06' W 004°34'9 8.8
2017-Apr-26 13:30N 50°07' W 004°20'5 9.2
2017-Apr-26 13:00N 50°07' W 004°13'5 9.5
2017-Apr-26 12:30N 50°07' W 004°05'5 9.9
2017-Apr-26 12:00N 50°07' W 003°58'510.4
2017-Apr-26 11:30N 50°07' W 003°50'510.3
2017-Apr-26 11:00N 50°07' W 003°42'5 9.8
2017-Apr-26 10:30N 50°08' W 003°34'5 9.1
2017-Apr-26 10:01N 50°09' W 003°27'4 8.8
2017-Apr-26 09:30N 50°09' W 003°20'4 8.4
2017-Apr-26 09:00N 50°10' W 003°14'4 8.0
2017-Apr-26 08:30N 50°12' W 003°08'4 7.6
2017-Apr-26 08:00N 50°13' W 003°02'4 7.2
2017-Apr-26 07:30N 50°13' W 002°56'4 6.9
2017-Apr-26 07:00N 50°13' W 002°51'4 6.9
2017-Apr-26 06:22N 50°14' W 002°44'3 7.0
2017-Apr-26 06:00N 50°14' W 002°40'4 7.2
2017-Apr-26 05:30N 50°15' W 002°35'4 7.6
2017-Apr-26 05:00N 50°16' W 002°29'4310.8
2017-Apr-26 01:02N 50°23' W 001°23'312.5
2017-Apr-26 00:48N 50°23' W 001°19'2411.3
2017-Apr-25 22:39N 50°28' W 000°41'2 8.7
2017-Apr-25 22:28N 50°29' W 000°38'4 8.0
2017-Apr-25 21:56N 50°29' W 000°32'3 7.3
2017-Apr-25 21:29N 50°29' W 000°27'4 7.1
2017-Apr-25 20:58N 50°30' W 000°21'3 6.9
2017-Apr-25 20:30N 50°30' W 000°16'3 6.4
2017-Apr-25 20:00N 50°31' W 000°11'3 6.6
2017-Apr-25 19:31N 50°31' W 000°06'3 6.7
2017-Apr-25 19:00N 50°32' W 000°01'3 6.7
2017-Apr-25 18:30N 50°33' E 000°04'4 7.4
2017-Apr-25 18:00N 50°34' E 000°10'5399.2
2017-Apr-25 18:00N 50°30' E 000°06'817.1 060 / 31013.410.8 9.6-3.010.6
2017-Apr-25 17:30N 50°36' E 000°16'4 8.9
2017-Apr-25 17:00N 50°37' E 000°22'5 9.3
2017-Apr-25 16:30N 50°38' E 000°29'5 9.1
2017-Apr-25 16:00N 50°40' E 000°36'5 9.3
2017-Apr-25 15:30N 50°43' E 000°42'5 9.1
2017-Apr-25 15:00N 50°45' E 000°48'4 8.9
2017-Apr-25 14:30N 50°48' E 000°54'9 8.3
2017-Apr-25 13:29N 50°53' E 001°04'4 7.7
2017-Apr-25 13:00N 50°55' E 001°09'4 7.3
2017-Apr-25 12:30N 50°57' E 001°14'3 6.6
2017-Apr-25 12:00N 50°59' E 001°18'3 5.9
2017-Apr-25 11:30N 51°01' E 001°21'3 5.6
2017-Apr-25 11:00N 51°03' E 001°25'3 5.8
2017-Apr-25 10:30N 51°05' E 001°28'3 6.7
2017-Apr-25 10:00N 51°07' E 001°32'4 7.2
2017-Apr-25 09:30N 51°10' E 001°36'4 7.9
2017-Apr-25 09:00N 51°13' E 001°40'5 9.4
2017-Apr-25 08:30N 51°18' E 001°41'510.2
2017-Apr-25 08:00N 51°22' E 001°44'510.6
2017-Apr-25 07:30N 51°28' E 001°45'510.6
2017-Apr-25 07:01N 51°33' E 001°46'510.4
2017-Apr-25 06:30N 51°38' E 001°46'510.2
2017-Apr-25 06:00N 51°43' E 001°44'510.0
2017-Apr-25 05:30N 51°48' E 001°42'4 8.7
2017-Apr-25 05:00N 51°52' E 001°42'4 8.4
2017-Apr-25 04:31N 51°56' E 001°44'4 8.1
2017-Apr-25 04:00N 52°00' E 001°45'4 7.2
2017-Apr-25 03:30N 52°04' E 001°47'3 7.0
2017-Apr-25 03:01N 52°07' E 001°47'3 6.5
2017-Apr-25 02:30N 52°10' E 001°50'3 6.8
2017-Apr-25 02:00N 52°13' E 001°52'22 6.7
2017-Apr-24 22:45N 52°35' E 001°60'2 7.5
2017-Apr-24 22:30N 52°36' E 002°01'4 8.2
2017-Apr-24 22:00N 52°40' E 002°03'5 9.1
2017-Apr-24 21:30N 52°45' E 002°03'4 8.3
2017-Apr-24 21:00N 52°46' E 001°56'5 9.2
2017-Apr-24 20:30N 52°47' E 001°49'5 9.6
2017-Apr-24 20:00N 52°50' E 001°42'510.0
2017-Apr-24 19:30N 52°53' E 001°36'510.2
2017-Apr-24 19:01N 52°57' E 001°30'5 9.5
2017-Apr-24 18:30N 53°01' E 001°26'5 9.2
2017-Apr-24 18:01N 53°05' E 001°23'5 9.1
2017-Apr-24 17:30N 53°09' E 001°19'5 9.6
2017-Apr-24 17:00N 53°13' E 001°14'57 8.9
2017-Apr-24 10:34N 54°05' E 000°34'1 7.9
2017-Apr-24 10:28N 54°05' E 000°34'4 7.8
2017-Apr-24 10:00N 54°08' E 000°30'4 7.9
2017-Apr-24 09:28N 54°12' E 000°28'4 7.8
2017-Apr-24 09:00N 54°16' E 000°26'4 7.7
2017-Apr-24 08:30N 54°20' E 000°24'4 7.5
2017-Apr-24 08:01N 54°23' E 000°22'4 7.6
2017-Apr-24 07:30N 54°27' E 000°20'4 7.9
2017-Apr-24 07:00N 54°30' E 000°18'4 8.1
2017-Apr-24 06:30N 54°34' E 000°15'4 8.3
2017-Apr-24 06:00N 54°38' E 000°13'4 8.4
2017-Apr-24 05:30N 54°42' E 000°09'4 8.6
2017-Apr-24 04:59N 54°46' E 000°06'4 8.9
2017-Apr-24 04:29N 54°50' E 000°03'4 8.9
2017-Apr-24 03:59N 54°54' W 000°01'135 8.2
2017-Apr-23 11:36N 56°55' W 001°44'3 8.7
2017-Apr-23 11:17N 56°58' W 001°47'3 8.7
2017-Apr-23 10:53N 57°01' W 001°51'4 8.7
2017-Apr-23 10:28N 57°04' W 001°54'4 8.6
2017-Apr-23 10:00N 57°07' W 001°57'4 8.0
2017-Apr-23 09:29N 57°09' W 002°04'1 1.3
2017-Apr-23 09:00N 57°09' W 002°05'0 0.0
2017-Apr-23 08:30N 57°09' W 002°05'0 0.0
2017-Apr-23 08:00N 57°09' W 002°05'0 0.0
2017-Apr-23 07:30N 57°09' W 002°05'0 0.0
2017-Apr-23 07:00N 57°09' W 002°05'0 0.0
2017-Apr-23 06:30N 57°09' W 002°05'0 0.0
2017-Apr-23 06:00N 57°09' W 002°05'0 0.0
2017-Apr-23 05:30N 57°09' W 002°05'0 0.0
2017-Apr-23 05:00N 57°09' W 002°05'0 0.0
2017-Apr-23 04:30N 57°09' W 002°05'0 0.0
2017-Apr-23 04:00N 57°09' W 002°05'0 0.0
2017-Apr-23 03:27N 57°09' W 002°05'0 0.0
2017-Apr-23 03:00N 57°09' W 002°05'0 0.0
2017-Apr-23 02:30N 57°09' W 002°05'0 0.0
2017-Apr-23 02:00N 57°09' W 002°05'0 0.0
2017-Apr-23 01:30N 57°09' W 002°05'0 0.0
2017-Apr-23 01:00N 57°09' W 002°05'0 0.0
2017-Apr-23 00:30N 57°09' W 002°05'0 0.0
2017-Apr-23 00:00N 57°09' W 002°05'0 0.0
2017-Apr-22 23:30N 57°09' W 002°05'0 0.0
2017-Apr-22 23:00N 57°09' W 002°05'0 0.0
2017-Apr-22 22:30N 57°09' W 002°05'0 0.0
2017-Apr-22 22:00N 57°09' W 002°05'0 0.0
2017-Apr-22 21:30N 57°09' W 002°05'0 0.0
2017-Apr-22 21:00N 57°09' W 002°05'0 0.0
2017-Apr-22 20:30N 57°09' W 002°05'0 0.0
2017-Apr-22 20:00N 57°09' W 002°05'0 0.0
2017-Apr-22 19:30N 57°09' W 002°05'0 0.0
2017-Apr-22 19:00N 57°09' W 002°05'0 0.0
2017-Apr-22 18:30N 57°09' W 002°05'0 0.0
2017-Apr-22 18:00N 57°09' W 002°05'0 0.0
2017-Apr-22 17:30N 57°09' W 002°05'0 0.0
2017-Apr-22 17:00N 57°09' W 002°05'0 0.0
2017-Apr-22 16:30N 57°09' W 002°05'0 0.0
2017-Apr-22 16:00N 57°09' W 002°05'0 0.0
2017-Apr-22 15:30N 57°09' W 002°05'0 0.0
2017-Apr-22 15:00N 57°09' W 002°05'0 0.0
2017-Apr-22 14:30N 57°09' W 002°05'0 0.0
2017-Apr-22 13:29N 57°09' W 002°05'0 0.0
2017-Apr-22 12:59N 57°09' W 002°05'0 0.0
2017-Apr-22 12:29N 57°09' W 002°05'0 0.0
2017-Apr-22 11:59N 57°09' W 002°05'0 0.0
2017-Apr-22 11:29N 57°09' W 002°05'0 0.0
2017-Apr-22 10:59N 57°09' W 002°05'0 0.0
2017-Apr-22 10:29N 57°09' W 002°05'0 0.0
2017-Apr-22 09:59N 57°09' W 002°05'0 0.0
2017-Apr-22 09:29N 57°09' W 002°05'0 0.0
2017-Apr-22 08:59N 57°09' W 002°05'0 0.0
2017-Apr-22 08:29N 57°09' W 002°05'0 0.0
2017-Apr-22 07:59N 57°09' W 002°05'0 0.0
2017-Apr-22 07:29N 57°09' W 002°05'0 0.0
2017-Apr-22 06:59N 57°09' W 002°05'0 0.0
2017-Apr-22 06:26N 57°09' W 002°05'0 0.0
2017-Apr-22 05:59N 57°09' W 002°05'0 0.0
2017-Apr-22 05:29N 57°09' W 002°05'0 0.0
2017-Apr-22 04:59N 57°09' W 002°05'0 0.0
2017-Apr-22 04:29N 57°09' W 002°05'0 0.0
2017-Apr-22 03:59N 57°09' W 002°05'0 0.0
2017-Apr-22 03:29N 57°09' W 002°05'0 0.0
2017-Apr-22 02:59N 57°09' W 002°05'0 0.0
2017-Apr-22 02:29N 57°09' W 002°05'0 0.0
2017-Apr-22 01:59N 57°09' W 002°05'0 0.0
2017-Apr-22 01:29N 57°09' W 002°05'0 0.0
2017-Apr-22 00:59N 57°09' W 002°05'0 0.0
2017-Apr-22 00:29N 57°09' W 002°05'0 0.0
2017-Apr-21 23:59N 57°09' W 002°05'0 0.0
2017-Apr-21 23:29N 57°09' W 002°05'0 0.0
2017-Apr-21 22:59N 57°09' W 002°05'0 0.0
2017-Apr-21 22:29N 57°09' W 002°05'0 0.0
2017-Apr-21 21:59N 57°09' W 002°05'0 0.0
2017-Apr-21 21:29N 57°09' W 002°05'0 0.0
2017-Apr-21 20:59N 57°09' W 002°05'0 0.0
2017-Apr-21 20:29N 57°09' W 002°05'0 0.0
2017-Apr-21 19:59N 57°09' W 002°05'0 0.0
2017-Apr-21 19:29N 57°09' W 002°05'0 0.0
2017-Apr-21 18:59N 57°09' W 002°05'0 0.0
2017-Apr-21 18:29N 57°09' W 002°05'0 0.0
2017-Apr-21 17:59N 57°09' W 002°05'0 0.0
2017-Apr-21 17:29N 57°09' W 002°05'0 0.0
2017-Apr-21 16:59N 57°09' W 002°05'0 0.0
2017-Apr-21 16:29N 57°09' W 002°05'0 0.0
2017-Apr-21 15:59N 57°09' W 002°05'0 0.0
2017-Apr-21 15:29N 57°09' W 002°05'0 0.0
2017-Apr-21 14:59N 57°09' W 002°05'0 0.0
2017-Apr-21 13:23N 57°09' W 002°05'0 0.0
2017-Apr-21 12:59N 57°09' W 002°05'0 0.0
2017-Apr-21 12:29N 57°09' W 002°05'0 0.0
2017-Apr-21 11:59N 57°09' W 002°05'0 0.0
2017-Apr-21 11:29N 57°09' W 002°05'0 0.0
2017-Apr-21 10:59N 57°09' W 002°05'0 0.0
2017-Apr-21 10:29N 57°09' W 002°05'0 0.0
2017-Apr-21 09:59N 57°09' W 002°05'0 0.0
2017-Apr-21 09:29N 57°09' W 002°05'0 0.0
2017-Apr-21 08:59N 57°09' W 002°05'0 0.0
2017-Apr-21 08:29N 57°09' W 002°05'0 0.0
2017-Apr-21 07:50N 57°09' W 002°05'0 0.0
2017-Apr-21 07:29N 57°09' W 002°05'0 0.0
2017-Apr-21 06:59N 57°09' W 002°05'0 0.0
2017-Apr-21 06:29N 57°09' W 002°05'0 0.0
2017-Apr-21 05:59N 57°09' W 002°05'0 0.0
2017-Apr-21 05:29N 57°09' W 002°05'0 0.0
2017-Apr-21 04:56N 57°09' W 002°05'0 0.0
2017-Apr-21 04:29N 57°09' W 002°05'0 0.0
2017-Apr-21 03:59N 57°09' W 002°05'0 0.0
2017-Apr-21 03:29N 57°09' W 002°05'0 0.0
2017-Apr-21 02:59N 57°09' W 002°05'0 0.0
2017-Apr-21 02:29N 57°09' W 002°05'0 0.0
2017-Apr-21 01:59N 57°09' W 002°05'0 0.0
2017-Apr-21 01:26N 57°09' W 002°05'0 0.0
2017-Apr-21 00:59N 57°09' W 002°05'0 0.0
2017-Apr-21 00:29N 57°09' W 002°05'0 0.0
2017-Apr-20 23:56N 57°09' W 002°05'0 0.0
2017-Apr-20 23:29N 57°09' W 002°05'0 0.0
2017-Apr-20 22:59N 57°09' W 002°05'0 0.0
2017-Apr-20 22:29N 57°09' W 002°05'0 0.0
2017-Apr-20 21:59N 57°09' W 002°05'0 0.0
2017-Apr-20 21:29N 57°09' W 002°05'0 0.0
2017-Apr-20 20:59N 57°09' W 002°05'0 0.0
2017-Apr-20 20:29N 57°09' W 002°05'0 0.0
2017-Apr-20 19:59N 57°09' W 002°05'0 0.0
2017-Apr-20 19:29N 57°09' W 002°05'0 0.0
2017-Apr-20 18:59N 57°09' W 002°05'0 0.0
2017-Apr-20 18:29N 57°09' W 002°05'0 0.0
2017-Apr-20 17:59N 57°09' W 002°05'0 0.0
2017-Apr-20 17:29N 57°09' W 002°05'0 0.0
2017-Apr-20 16:59N 57°09' W 002°05'0 0.0
2017-Apr-20 16:29N 57°09' W 002°05'0 0.0
2017-Apr-20 15:59N 57°09' W 002°05'0 0.0
2017-Apr-20 15:29N 57°09' W 002°05'0 0.0
2017-Apr-20 14:59N 57°09' W 002°05'0 0.0
2017-Apr-20 13:59N 57°09' W 002°05'0 0.0
2017-Apr-20 13:29N 57°09' W 002°05'0 0.0
2017-Apr-20 12:59N 57°09' W 002°05'0 0.0
2017-Apr-20 12:29N 57°09' W 002°05'0 0.0
2017-Apr-20 11:59N 57°09' W 002°05'0 0.0
2017-Apr-20 11:30N 57°09' W 002°05'1 2.5
2017-Apr-20 11:00N 57°09' W 002°03'2 3.8
2017-Apr-20 10:30N 57°08' W 002°00'3 6.4
2017-Apr-20 10:00N 57°05' W 002°02'4 7.4
2017-Apr-20 09:30N 57°01' W 002°04'4 0.2
2017-Apr-19 11:22N 56°57' W 002°07'3 7.2
2017-Apr-19 11:00N 56°57' W 002°03'4 7.2
2017-Apr-19 10:30N 56°56' W 001°56'4 7.9
2017-Apr-19 10:00N 56°54' W 001°51'19 4.8
2017-Apr-19 06:00N 56°36' W 001°36'24 3.8 210 / 151032.910.8 7.6 3.9 7.7
2017-Apr-18 23:43N 56°12' W 001°33'1 5.3
2017-Apr-18 23:30N 56°11' W 001°33'3 5.3
2017-Apr-18 22:58N 56°08' W 001°33'14 7.3
2017-Apr-18 21:00N 55°54' W 001°30'4 3.0 170 / 181034.810.8 7.2 2.1
2017-Apr-18 19:40N 55°54' W 001°37'1 3.5
2017-Apr-18 19:22N 55°53' W 001°37'1 3.4
2017-Apr-18 18:57N 55°52' W 001°36'3 3.3
2017-Apr-18 18:10N 55°50' W 001°34'0 3.0
2017-Apr-18 18:00N 55°49' W 001°34'2 3.1
2017-Apr-18 17:30N 55°48' W 001°33'1 3.1
2017-Apr-18 17:00N 55°46' W 001°32'2 2.6
2017-Apr-18 16:25N 55°45' W 001°32'2 3.4
2017-Apr-18 15:53N 55°43' W 001°31'5 3.4
2017-Apr-18 14:30N 55°38' W 001°29'4 4.3
2017-Apr-18 13:30N 55°34' W 001°28'4 7.0
2017-Apr-18 13:00N 55°31' W 001°27'4 7.7
2017-Apr-18 12:30N 55°27' W 001°27'4 7.4
2017-Apr-18 12:00N 55°23' W 001°27'4 7.1
2017-Apr-18 11:31N 55°20' W 001°27'4 7.0
2017-Apr-18 11:00N 55°16' W 001°25'3 6.8
2017-Apr-18 10:30N 55°13' W 001°23'3 6.3
2017-Apr-18 10:00N 55°10' W 001°22'3 5.2
2017-Apr-18 09:30N 55°07' W 001°21'2 3.7
2017-Apr-18 09:00N 55°05' W 001°22'2 3.6
2017-Apr-18 08:30N 55°04' W 001°22'3 5.3
2017-Apr-18 08:00N 55°01' W 001°22'3 5.3
2017-Apr-18 07:30N 54°60' W 001°27'4 4.9
2017-Apr-18 06:44N 54°58' W 001°32'  

Dump ship's entire track history